Date,TemperatureHighF,TemperatureAvgF,TemperatureLowF,DewpointHighF,DewpointAvgF,DewpointLowF,HumidityHigh,HumidityAvg,HumidityLow,PressureMaxIn,PressureMinIn,WindSpeedMaxMPH,WindSpeedAvgMPH,GustSpeedMaxMPH,PrecipitationSumIn
2013-2-1,29.1,25.0,20.3,17.8,11.0,-0.8,78,56,28,30.25,29.78,20,6,30,0.00
2013-2-2,23.3,19.6,15.0,18.5,9.8,3.9,89,66,45,30.31,30.06,19,3,19,0.04
2013-2-3,27.8,21.5,17.2,22.1,17.4,14.5,92,84,65,30.06,29.82,13,1,13,0.00
2013-2-4,28.0,23.7,18.6,20.5,10.9,6.5,85,58,42,30.01,29.85,25,5,25,0.00
2013-2-5,30.8,27.0,24.1,26.5,22.5,16.9,93,83,71,29.99,29.90,8,0,8,0.00
2013-2-6,37.7,30.3,25.0,27.1,20.7,9.9,95,70,41,30.37,29.93,20,2,20,0.00
2013-2-7,32.3,25.3,17.7,19.2,12.9,9.4,78,60,44,30.51,30.33,10,1,10,0.00
2013-2-8,33.4,30.6,28.4,31.8,27.7,19.2,97,89,68,30.33,29.71,23,5,23,0.14
2013-2-9,32.6,25.9,18.3,29.4,15.6,6.5,98,67,40,30.39,29.79,29,4,29,0.09
2013-2-10,42.8,25.0,7.6,18.3,11.2,4.0,88,59,28,30.50,30.32,11,1,11,0.00
2013-2-11,40.8,35.4,31.5,40.5,30.5,15.5,100,84,50,30.32,29.68,13,2,18,0.24
2013-2-12,40.5,37.6,28.6,36.7,25.7,24.1,100,62,54,29.99,29.75,23,6,27,0.00
2013-2-13,43.7,33.3,22.4,32.2,25.7,20.7,95,76,50,29.97,29.70,8,0,8,0.04
2013-2-14,43.7,34.6,26.8,32.2,28.1,25.5,99,79,53,30.01,29.73,13,1,13,0.00
2013-2-15,52.1,41.7,30.9,33.3,29.7,25.7,88,64,41,30.01,29.93,30,4,30,0.02
2013-2-16,34.2,31.4,26.5,32.6,22.3,9.9,96,70,48,29.98,29.80,19,2,19,0.08
2013-2-17,28.9,23.3,15.9,12.6,5.0,0.1,64,45,33,30.07,29.74,31,6,31,0.00
2013-2-18,34.8,23.9,13.8,13.0,6.0,0.8,60,47,32,30.30,30.07,23,5,23,0.00
2013-2-19,40.7,34.7,25.6,38.5,26.4,11.0,97,73,42,30.19,29.71,21,3,21,0.20
2013-2-20,34.2,27.1,22.7,23.7,13.4,8.7,69,56,48,30.02,29.76,26,9,26,0.00
2013-2-21,32.9,25.5,20.5,15.7,12.6,10.0,72,58,47,30.35,30.01,24,5,24,0.00
2013-2-22,36.7,28.3,19.7,29.7,19.8,12.5,85,71,56,30.42,30.27,11,1,11,0.00
2013-2-23,41.0,37.2,33.7,40.0,36.0,29.7,98,95,85,30.27,29.84,18,3,18,0.01
2013-2-24,43.4,35.9,30.6,38.0,29.7,20.5,99,79,59,30.01,29.79,16,3,16,0.00
2013-2-25,41.4,34.0,27.2,29.1,26.0,21.3,91,73,57,30.26,30.00,15,1,15,0.00
2013-2-26,42.1,33.5,23.2,32.4,27.9,21.7,95,81,62,30.29,29.88,25,3,25,0.12
2013-2-27,45.9,41.2,34.5,43.4,37.8,32.4,99,88,73,29.89,29.51,35,7,35,0.23
2013-2-28,45.1,38.8,31.7,36.2,32.0,26.3,95,78,52,29.65,29.56,15,2,15,0.00